sensor_id;sensor_type;location;lat;lon;timestamp;P1;P2;P0
67892;PMS7003;54688;52.376;16.744;2022-11-04T00:00:17;32;26;
67892;PMS7003;54688;52.376;16.744;2022-11-04T00:03:34;33;29;
67892;PMS7003;54688;52.376;16.744;2022-11-04T00:06:36;33;29;
67892;PMS7003;54688;52.376;16.744;2022-11-04T00:09:39;37;30;
67892;PMS7003;54688;52.376;16.744;2022-11-04T00:12:41;36;31;
67892;PMS7003;54688;52.376;16.744;2022-11-04T00:15:43;32;25;
67892;PMS7003;54688;52.376;16.744;2022-11-04T00:18:45;26;22;
67892;PMS7003;54688;52.376;16.744;2022-11-04T00:21:48;43;30;
67892;PMS7003;54688;52.376;16.744;2022-11-04T00:24:50;27;21;
67892;PMS7003;54688;52.376;16.744;2022-11-04T00:27:52;34;26;
67892;PMS7003;54688;52.376;16.744;2022-11-04T00:30:55;32;26;
67892;PMS7003;54688;52.376;16.744;2022-11-04T00:33:57;32;27;
67892;PMS7003;54688;52.376;16.744;2022-11-04T00:36:59;29;22;
67892;PMS7003;54688;52.376;16.744;2022-11-04T00:40:02;32;30;
67892;PMS7003;54688;52.376;16.744;2022-11-04T00:43:04;33;27;
67892;PMS7003;54688;52.376;16.744;2022-11-04T00:46:07;32;28;
67892;PMS7003;54688;52.376;16.744;2022-11-04T00:52:09;30;28;
67892;PMS7003;54688;52.376;16.744;2022-11-04T00:55:10;35;27;
67892;PMS7003;54688;52.376;16.744;2022-11-04T00:58:12;30;28;
67892;PMS7003;54688;52.376;16.744;2022-11-04T01:01:16;42;33;
67892;PMS7003;54688;52.376;16.744;2022-11-04T01:04:18;36;30;
67892;PMS7003;54688;52.376;16.744;2022-11-04T01:07:21;31;27;
67892;PMS7003;54688;52.376;16.744;2022-11-04T01:10:23;38;30;
67892;PMS7003;54688;52.376;16.744;2022-11-04T01:16:26;37;31;
67892;PMS7003;54688;52.376;16.744;2022-11-04T01:19:28;34;27;
67892;PMS7003;54688;52.376;16.744;2022-11-04T01:22:31;36;27;
67892;PMS7003;54688;52.376;16.744;2022-11-04T01:25:33;39;30;
67892;PMS7003;54688;52.376;16.744;2022-11-04T01:28:35;40;32;
67892;PMS7003;54688;52.376;16.744;2022-11-04T01:31:37;31;26;
67892;PMS7003;54688;52.376;16.744;2022-11-04T01:34:39;33;27;
67892;PMS7003;54688;52.376;16.744;2022-11-04T01:37:41;27;24;
67892;PMS7003;54688;52.376;16.744;2022-11-04T01:40:44;30;29;
67892;PMS7003;54688;52.376;16.744;2022-11-04T01:43:49;33;29;
67892;PMS7003;54688;52.376;16.744;2022-11-04T01:46:52;30;27;
67892;PMS7003;54688;52.376;16.744;2022-11-04T01:49:58;32;28;
67892;PMS7003;54688;52.376;16.744;2022-11-04T01:53:04;31;28;
67892;PMS7003;54688;52.376;16.744;2022-11-04T01:56:09;29;29;
67892;PMS7003;54688;52.376;16.744;2022-11-04T01:59:17;30;24;
67892;PMS7003;54688;52.376;16.744;2022-11-04T02:02:21;29;26;
67892;PMS7003;54688;52.376;16.744;2022-11-04T02:05:23;30;26;
67892;PMS7003;54688;52.376;16.744;2022-11-04T02:08:25;31;24;
67892;PMS7003;54688;52.376;16.744;2022-11-04T02:11:27;35;28;
67892;PMS7003;54688;52.376;16.744;2022-11-04T02:14:29;34;27;
67892;PMS7003;54688;52.376;16.744;2022-11-04T02:17:40;40;30;
67892;PMS7003;54688;52.376;16.744;2022-11-04T02:21:03;53;37;
67892;PMS7003;54688;52.376;16.744;2022-11-04T02:24:24;44;34;
67892;PMS7003;54688;52.376;16.744;2022-11-04T02:27:38;41;34;
67892;PMS7003;54688;52.376;16.744;2022-11-04T02:30:50;44;35;
67892;PMS7003;54688;52.376;16.744;2022-11-04T02:34:00;45;36;
67892;PMS7003;54688;52.376;16.744;2022-11-04T02:37:10;43;34;
67892;PMS7003;54688;52.376;16.744;2022-11-04T02:40:21;41;35;
67892;PMS7003;54688;52.376;16.744;2022-11-04T02:43:32;47;37;
67892;PMS7003;54688;52.376;16.744;2022-11-04T02:46:38;42;36;
67892;PMS7003;54688;52.376;16.744;2022-11-04T02:49:46;45;38;
67892;PMS7003;54688;52.376;16.744;2022-11-04T02:52:56;45;34;
67892;PMS7003;54688;52.376;16.744;2022-11-04T02:56:01;47;36;
67892;PMS7003;54688;52.376;16.744;2022-11-04T02:59:07;45;36;
67892;PMS7003;54688;52.376;16.744;2022-11-04T03:02:15;45;36;
67892;PMS7003;54688;52.376;16.744;2022-11-04T03:08:20;44;33;
67892;PMS7003;54688;52.376;16.744;2022-11-04T03:11:24;42;35;
67892;PMS7003;54688;52.376;16.744;2022-11-04T03:14:30;47;35;
67892;PMS7003;54688;52.376;16.744;2022-11-04T03:17:40;41;30;
67892;PMS7003;54688;52.376;16.744;2022-11-04T03:20:45;47;36;
67892;PMS7003;54688;52.376;16.744;2022-11-04T03:23:48;47;36;
67892;PMS7003;54688;52.376;16.744;2022-11-04T03:26:54;43;31;
67892;PMS7003;54688;52.376;16.744;2022-11-04T03:30:01;43;34;
67892;PMS7003;54688;52.376;16.744;2022-11-04T03:33:12;39;32;
67892;PMS7003;54688;52.376;16.744;2022-11-04T03:39:18;42;35;
67892;PMS7003;54688;52.376;16.744;2022-11-04T03:42:22;45;33;
67892;PMS7003;54688;52.376;16.744;2022-11-04T03:45:25;45;36;
67892;PMS7003;54688;52.376;16.744;2022-11-04T03:48:28;35;32;
67892;PMS7003;54688;52.376;16.744;2022-11-04T03:51:30;44;35;
67892;PMS7003;54688;52.376;16.744;2022-11-04T03:54:33;44;33;
67892;PMS7003;54688;52.376;16.744;2022-11-04T03:57:43;37;31;
67892;PMS7003;54688;52.376;16.744;2022-11-04T04:00:52;46;35;
67892;PMS7003;54688;52.376;16.744;2022-11-04T04:04:04;44;33;
67892;PMS7003;54688;52.376;16.744;2022-11-04T04:07:12;45;35;
67892;PMS7003;54688;52.376;16.744;2022-11-04T04:10:22;40;33;
67892;PMS7003;54688;52.376;16.744;2022-11-04T04:13:35;47;36;
67892;PMS7003;54688;52.376;16.744;2022-11-04T04:16:42;47;33;
67892;PMS7003;54688;52.376;16.744;2022-11-04T04:19:49;43;32;
67892;PMS7003;54688;52.376;16.744;2022-11-04T04:22:55;34;31;
67892;PMS7003;54688;52.376;16.744;2022-11-04T04:26:02;39;34;
67892;PMS7003;54688;52.376;16.744;2022-11-04T04:29:06;43;34;
67892;PMS7003;54688;52.376;16.744;2022-11-04T04:32:09;43;36;
67892;PMS7003;54688;52.376;16.744;2022-11-04T04:35:12;45;35;
67892;PMS7003;54688;52.376;16.744;2022-11-04T04:38:18;52;41;
67892;PMS7003;54688;52.376;16.744;2022-11-04T04:41:25;53;42;
67892;PMS7003;54688;52.376;16.744;2022-11-04T04:44:28;51;40;
67892;PMS7003;54688;52.376;16.744;2022-11-04T04:47:37;47;38;
67892;PMS7003;54688;52.376;16.744;2022-11-04T04:50:43;44;36;
67892;PMS7003;54688;52.376;16.744;2022-11-04T04:53:45;39;31;
67892;PMS7003;54688;52.376;16.744;2022-11-04T04:56:47;49;35;
67892;PMS7003;54688;52.376;16.744;2022-11-04T04:59:49;42;32;
67892;PMS7003;54688;52.376;16.744;2022-11-04T05:02:52;45;36;
67892;PMS7003;54688;52.376;16.744;2022-11-04T05:05:54;55;42;
67892;PMS7003;54688;52.376;16.744;2022-11-04T05:08:56;50;40;
67892;PMS7003;54688;52.376;16.744;2022-11-04T05:11:58;44;35;
67892;PMS7003;54688;52.376;16.744;2022-11-04T05:15:00;51;40;
67892;PMS7003;54688;52.376;16.744;2022-11-04T05:18:02;47;37;
67892;PMS7003;54688;52.376;16.744;2022-11-04T05:24:04;51;40;
67892;PMS7003;54688;52.376;16.744;2022-11-04T05:27:06;42;35;
67892;PMS7003;54688;52.376;16.744;2022-11-04T05:30:10;46;37;
67892;PMS7003;54688;52.376;16.744;2022-11-04T05:33:13;43;36;
67892;PMS7003;54688;52.376;16.744;2022-11-04T05:36:15;45;35;
67892;PMS7003;54688;52.376;16.744;2022-11-04T05:42:17;45;35;
67892;PMS7003;54688;52.376;16.744;2022-11-04T05:45:19;43;37;
67892;PMS7003;54688;52.376;16.744;2022-11-04T05:48:21;52;40;
67892;PMS7003;54688;52.376;16.744;2022-11-04T05:51:24;37;32;
67892;PMS7003;54688;52.376;16.744;2022-11-04T05:54:27;47;36;
67892;PMS7003;54688;52.376;16.744;2022-11-04T05:57:29;46;36;
67892;PMS7003;54688;52.376;16.744;2022-11-04T06:00:31;40;32;
67892;PMS7003;54688;52.376;16.744;2022-11-04T06:03:32;40;33;
67892;PMS7003;54688;52.376;16.744;2022-11-04T06:06:35;42;35;
67892;PMS7003;54688;52.376;16.744;2022-11-04T06:09:37;41;35;
67892;PMS7003;54688;52.376;16.744;2022-11-04T06:12:39;46;34;
67892;PMS7003;54688;52.376;16.744;2022-11-04T06:15:41;44;34;
67892;PMS7003;54688;52.376;16.744;2022-11-04T06:18:44;44;31;
67892;PMS7003;54688;52.376;16.744;2022-11-04T06:21:46;45;35;
67892;PMS7003;54688;52.376;16.744;2022-11-04T06:24:47;47;37;
67892;PMS7003;54688;52.376;16.744;2022-11-04T06:27:49;45;33;
67892;PMS7003;54688;52.376;16.744;2022-11-04T06:30:51;38;30;
67892;PMS7003;54688;52.376;16.744;2022-11-04T06:33:53;42;32;
67892;PMS7003;54688;52.376;16.744;2022-11-04T06:36:55;44;35;
67892;PMS7003;54688;52.376;16.744;2022-11-04T06:39:58;44;33;
67892;PMS7003;54688;52.376;16.744;2022-11-04T06:42:59;41;33;
67892;PMS7003;54688;52.376;16.744;2022-11-04T06:46:02;44;35;
67892;PMS7003;54688;52.376;16.744;2022-11-04T06:49:06;36;29;
67892;PMS7003;54688;52.376;16.744;2022-11-04T06:52:10;45;37;
67892;PMS7003;54688;52.376;16.744;2022-11-04T06:55:12;40;33;
67892;PMS7003;54688;52.376;16.744;2022-11-04T06:58:13;44;35;
67892;PMS7003;54688;52.376;16.744;2022-11-04T07:01:16;32;28;
67892;PMS7003;54688;52.376;16.744;2022-11-04T07:04:19;37;33;
67892;PMS7003;54688;52.376;16.744;2022-11-04T07:07:21;46;35;
67892;PMS7003;54688;52.376;16.744;2022-11-04T07:10:23;41;34;
67892;PMS7003;54688;52.376;16.744;2022-11-04T07:13:25;46;38;
67892;PMS7003;54688;52.376;16.744;2022-11-04T07:16:27;42;36;
67892;PMS7003;54688;52.376;16.744;2022-11-04T07:19:29;44;33;
67892;PMS7003;54688;52.376;16.744;2022-11-04T07:22:32;44;34;
67892;PMS7003;54688;52.376;16.744;2022-11-04T07:25:34;41;31;
67892;PMS7003;54688;52.376;16.744;2022-11-04T07:28:36;42;33;
67892;PMS7003;54688;52.376;16.744;2022-11-04T07:31:38;42;34;
67892;PMS7003;54688;52.376;16.744;2022-11-04T07:34:40;31;27;
67892;PMS7003;54688;52.376;16.744;2022-11-04T07:37:42;35;31;
67892;PMS7003;54688;52.376;16.744;2022-11-04T07:40:44;44;34;
67892;PMS7003;54688;52.376;16.744;2022-11-04T07:43:47;40;31;
67892;PMS7003;54688;52.376;16.744;2022-11-04T07:46:49;39;31;
67892;PMS7003;54688;52.376;16.744;2022-11-04T07:49:52;39;31;
67892;PMS7003;54688;52.376;16.744;2022-11-04T07:52:53;43;35;
67892;PMS7003;54688;52.376;16.744;2022-11-04T07:55:56;34;31;
67892;PMS7003;54688;52.376;16.744;2022-11-04T07:58:58;45;34;
67892;PMS7003;54688;52.376;16.744;2022-11-04T08:02:00;49;32;
67892;PMS7003;54688;52.376;16.744;2022-11-04T08:05:05;43;33;
67892;PMS7003;54688;52.376;16.744;2022-11-04T08:08:07;42;33;
67892;PMS7003;54688;52.376;16.744;2022-11-04T08:11:11;41;33;
67892;PMS7003;54688;52.376;16.744;2022-11-04T08:14:14;36;30;
67892;PMS7003;54688;52.376;16.744;2022-11-04T08:17:16;46;34;
67892;PMS7003;54688;52.376;16.744;2022-11-04T08:20:18;49;33;
67892;PMS7003;54688;52.376;16.744;2022-11-04T08:23:21;48;32;
67892;PMS7003;54688;52.376;16.744;2022-11-04T08:26:23;34;29;
67892;PMS7003;54688;52.376;16.744;2022-11-04T08:29:25;35;32;
67892;PMS7003;54688;52.376;16.744;2022-11-04T08:32:27;37;32;
67892;PMS7003;54688;52.376;16.744;2022-11-04T08:35:30;38;32;
67892;PMS7003;54688;52.376;16.744;2022-11-04T08:38:32;39;33;
67892;PMS7003;54688;52.376;16.744;2022-11-04T08:41:34;40;32;
67892;PMS7003;54688;52.376;16.744;2022-11-04T08:44:37;45;32;
67892;PMS7003;54688;52.376;16.744;2022-11-04T08:47:38;38;27;
67892;PMS7003;54688;52.376;16.744;2022-11-04T08:50:41;35;32;
67892;PMS7003;54688;52.376;16.744;2022-11-04T08:53:44;44;35;
67892;PMS7003;54688;52.376;16.744;2022-11-04T08:56:46;39;33;
67892;PMS7003;54688;52.376;16.744;2022-11-04T08:59:48;31;28;
67892;PMS7003;54688;52.376;16.744;2022-11-04T09:02:50;39;32;
67892;PMS7003;54688;52.376;16.744;2022-11-04T09:05:52;40;32;
67892;PMS7003;54688;52.376;16.744;2022-11-04T09:08:55;34;29;
67892;PMS7003;54688;52.376;16.744;2022-11-04T09:11:58;37;28;
67892;PMS7003;54688;52.376;16.744;2022-11-04T09:14:59;32;30;
67892;PMS7003;54688;52.376;16.744;2022-11-04T09:18:02;38;30;
67892;PMS7003;54688;52.376;16.744;2022-11-04T09:21:05;33;29;
67892;PMS7003;54688;52.376;16.744;2022-11-04T09:24:08;39;32;
67892;PMS7003;54688;52.376;16.744;2022-11-04T09:27:09;35;31;
67892;PMS7003;54688;52.376;16.744;2022-11-04T09:30:12;35;30;
67892;PMS7003;54688;52.376;16.744;2022-11-04T09:33:14;39;32;
67892;PMS7003;54688;52.376;16.744;2022-11-04T09:36:16;35;28;
67892;PMS7003;54688;52.376;16.744;2022-11-04T09:39:18;37;32;
67892;PMS7003;54688;52.376;16.744;2022-11-04T09:42:30;38;32;
67892;PMS7003;54688;52.376;16.744;2022-11-04T09:45:38;37;32;
67892;PMS7003;54688;52.376;16.744;2022-11-04T09:51:41;38;31;
67892;PMS7003;54688;52.376;16.744;2022-11-04T09:54:49;40;30;
67892;PMS7003;54688;52.376;16.744;2022-11-04T10:00:56;37;30;
67892;PMS7003;54688;52.376;16.744;2022-11-04T10:04:09;43;35;
67892;PMS7003;54688;52.376;16.744;2022-11-04T10:07:26;33;28;
67892;PMS7003;54688;52.376;16.744;2022-11-04T10:10:37;36;30;
67892;PMS7003;54688;52.376;16.744;2022-11-04T10:13:52;30;26;
67892;PMS7003;54688;52.376;16.744;2022-11-04T10:17:05;34;26;
67892;PMS7003;54688;52.376;16.744;2022-11-04T10:20:20;33;25;
67892;PMS7003;54688;52.376;16.744;2022-11-04T10:23:31;33;28;
67892;PMS7003;54688;52.376;16.744;2022-11-04T10:26:40;36;30;
67892;PMS7003;54688;52.376;16.744;2022-11-04T10:29:45;31;27;
67892;PMS7003;54688;52.376;16.744;2022-11-04T10:32:57;33;30;
67892;PMS7003;54688;52.376;16.744;2022-11-04T10:36:05;28;27;
67892;PMS7003;54688;52.376;16.744;2022-11-04T10:39:15;41;30;
67892;PMS7003;54688;52.376;16.744;2022-11-04T10:42:21;32;30;
67892;PMS7003;54688;52.376;16.744;2022-11-04T10:45:28;38;30;
67892;PMS7003;54688;52.376;16.744;2022-11-04T10:48:35;40;32;
67892;PMS7003;54688;52.376;16.744;2022-11-04T10:54:43;37;31;
67892;PMS7003;54688;52.376;16.744;2022-11-04T10:57:45;31;28;
67892;PMS7003;54688;52.376;16.744;2022-11-04T11:00:48;38;30;
67892;PMS7003;54688;52.376;16.744;2022-11-04T11:03:50;38;29;
67892;PMS7003;54688;52.376;16.744;2022-11-04T11:06:54;33;27;
67892;PMS7003;54688;52.376;16.744;2022-11-04T11:09:57;32;28;
67892;PMS7003;54688;52.376;16.744;2022-11-04T11:13:02;35;30;
67892;PMS7003;54688;52.376;16.744;2022-11-04T11:16:08;29;26;
67892;PMS7003;54688;52.376;16.744;2022-11-04T11:19:14;28;26;
67892;PMS7003;54688;52.376;16.744;2022-11-04T11:22:49;30;24;
67892;PMS7003;54688;52.376;16.744;2022-11-04T11:25:51;32;27;
67892;PMS7003;54688;52.376;16.744;2022-11-04T11:28:54;32;29;
67892;PMS7003;54688;52.376;16.744;2022-11-04T11:31:58;23;23;
67892;PMS7003;54688;52.376;16.744;2022-11-04T11:35:00;37;31;
67892;PMS7003;54688;52.376;16.744;2022-11-04T11:38:02;29;27;
67892;PMS7003;54688;52.376;16.744;2022-11-04T11:41:06;22;22;
67892;PMS7003;54688;52.376;16.744;2022-11-04T11:44:20;34;26;
67892;PMS7003;54688;52.376;16.744;2022-11-04T11:47:33;30;28;
67892;PMS7003;54688;52.376;16.744;2022-11-04T11:50:36;32;30;
67892;PMS7003;54688;52.376;16.744;2022-11-04T11:53:38;29;27;
67892;PMS7003;54688;52.376;16.744;2022-11-04T12:02:45;30;27;
67892;PMS7003;54688;52.376;16.744;2022-11-04T12:05:58;38;30;
67892;PMS7003;54688;52.376;16.744;2022-11-04T12:09:11;28;27;
67892;PMS7003;54688;52.376;16.744;2022-11-04T12:12:27;34;27;
67892;PMS7003;54688;52.376;16.744;2022-11-04T12:15:40;39;31;
67892;PMS7003;54688;52.376;16.744;2022-11-04T12:18:54;28;26;
67892;PMS7003;54688;52.376;16.744;2022-11-04T12:22:05;30;25;
67892;PMS7003;54688;52.376;16.744;2022-11-04T12:25:17;32;30;
67892;PMS7003;54688;52.376;16.744;2022-11-04T12:31:25;45;33;
67892;PMS7003;54688;52.376;16.744;2022-11-04T12:34:39;32;28;
67892;PMS7003;54688;52.376;16.744;2022-11-04T12:37:49;31;27;
67892;PMS7003;54688;52.376;16.744;2022-11-04T12:41:04;43;30;
67892;PMS7003;54688;52.376;16.744;2022-11-04T12:44:17;33;27;
67892;PMS7003;54688;52.376;16.744;2022-11-04T12:47:32;37;30;
67892;PMS7003;54688;52.376;16.744;2022-11-04T12:50:43;29;27;
67892;PMS7003;54688;52.376;16.744;2022-11-04T12:53:58;29;27;
67892;PMS7003;54688;52.376;16.744;2022-11-04T12:57:12;35;30;
67892;PMS7003;54688;52.376;16.744;2022-11-04T13:00:17;35;30;
67892;PMS7003;54688;52.376;16.744;2022-11-04T13:03:23;35;29;
67892;PMS7003;54688;52.376;16.744;2022-11-04T13:06:32;32;26;
67892;PMS7003;54688;52.376;16.744;2022-11-04T13:09:38;32;29;
67892;PMS7003;54688;52.376;16.744;2022-11-04T13:12:43;29;24;
67892;PMS7003;54688;52.376;16.744;2022-11-04T13:15:50;32;28;
67892;PMS7003;54688;52.376;16.744;2022-11-04T13:18:52;39;31;
67892;PMS7003;54688;52.376;16.744;2022-11-04T13:21:55;31;26;
67892;PMS7003;54688;52.376;16.744;2022-11-04T13:25:01;32;26;
67892;PMS7003;54688;52.376;16.744;2022-11-04T13:28:07;35;30;
67892;PMS7003;54688;52.376;16.744;2022-11-04T13:31:18;36;29;
67892;PMS7003;54688;52.376;16.744;2022-11-04T13:34:29;33;30;
67892;PMS7003;54688;52.376;16.744;2022-11-04T13:37:38;33;31;
67892;PMS7003;54688;52.376;16.744;2022-11-04T13:40:45;38;30;
67892;PMS7003;54688;52.376;16.744;2022-11-04T13:43:54;31;29;
67892;PMS7003;54688;52.376;16.744;2022-11-04T13:46:59;41;32;
67892;PMS7003;54688;52.376;16.744;2022-11-04T13:50:04;40;32;
67892;PMS7003;54688;52.376;16.744;2022-11-04T13:53:08;37;30;
67892;PMS7003;54688;52.376;16.744;2022-11-04T13:56:26;43;33;
67892;PMS7003;54688;52.376;16.744;2022-11-04T13:59:29;42;30;
67892;PMS7003;54688;52.376;16.744;2022-11-04T14:02:38;43;36;
67892;PMS7003;54688;52.376;16.744;2022-11-04T14:05:58;37;30;
67892;PMS7003;54688;52.376;16.744;2022-11-04T14:09:50;45;33;
67892;PMS7003;54688;52.376;16.744;2022-11-04T14:12:52;39;33;
67892;PMS7003;54688;52.376;16.744;2022-11-04T14:16:00;41;30;
67892;PMS7003;54688;52.376;16.744;2022-11-04T14:19:46;42;33;
67892;PMS7003;54688;52.376;16.744;2022-11-04T14:22:50;38;31;
67892;PMS7003;54688;52.376;16.744;2022-11-04T14:25:58;38;31;
67892;PMS7003;54688;52.376;16.744;2022-11-04T14:29:05;45;35;
67892;PMS7003;54688;52.376;16.744;2022-11-04T14:32:10;38;32;
67892;PMS7003;54688;52.376;16.744;2022-11-04T14:35:16;38;31;
67892;PMS7003;54688;52.376;16.744;2022-11-04T14:38:24;41;32;
67892;PMS7003;54688;52.376;16.744;2022-11-04T14:41:32;41;29;
67892;PMS7003;54688;52.376;16.744;2022-11-04T14:44:49;37;30;
67892;PMS7003;54688;52.376;16.744;2022-11-04T14:47:53;38;30;
67892;PMS7003;54688;52.376;16.744;2022-11-04T14:50:56;34;30;
67892;PMS7003;54688;52.376;16.744;2022-11-04T14:54:04;35;30;
67892;PMS7003;54688;52.376;16.744;2022-11-04T14:57:14;37;30;
67892;PMS7003;54688;52.376;16.744;2022-11-04T15:00:22;40;32;
67892;PMS7003;54688;52.376;16.744;2022-11-04T15:03:35;34;31;
67892;PMS7003;54688;52.376;16.744;2022-11-04T15:06:38;36;30;
67892;PMS7003;54688;52.376;16.744;2022-11-04T15:09:48;43;31;
67892;PMS7003;54688;52.376;16.744;2022-11-04T15:12:51;36;32;
67892;PMS7003;54688;52.376;16.744;2022-11-04T15:15:54;36;32;
67892;PMS7003;54688;52.376;16.744;2022-11-04T15:21:58;39;30;
67892;PMS7003;54688;52.376;16.744;2022-11-04T15:25:03;36;30;
67892;PMS7003;54688;52.376;16.744;2022-11-04T15:28:15;43;33;
67892;PMS7003;54688;52.376;16.744;2022-11-04T15:31:20;41;32;
67892;PMS7003;54688;52.376;16.744;2022-11-04T15:34:24;40;31;
67892;PMS7003;54688;52.376;16.744;2022-11-04T15:37:28;44;30;
67892;PMS7003;54688;52.376;16.744;2022-11-04T15:40:31;40;31;
67892;PMS7003;54688;52.376;16.744;2022-11-04T15:43:34;37;30;
67892;PMS7003;54688;52.376;16.744;2022-11-04T15:46:36;36;32;
67892;PMS7003;54688;52.376;16.744;2022-11-04T15:49:39;41;33;
67892;PMS7003;54688;52.376;16.744;2022-11-04T15:52:47;38;33;
67892;PMS7003;54688;52.376;16.744;2022-11-04T15:55:50;44;34;
67892;PMS7003;54688;52.376;16.744;2022-11-04T15:58:53;48;38;
67892;PMS7003;54688;52.376;16.744;2022-11-04T16:01:56;45;36;
67892;PMS7003;54688;52.376;16.744;2022-11-04T16:05:02;45;35;
67892;PMS7003;54688;52.376;16.744;2022-11-04T16:08:18;47;36;
67892;PMS7003;54688;52.376;16.744;2022-11-04T16:11:21;45;35;
67892;PMS7003;54688;52.376;16.744;2022-11-04T16:14:24;42;35;
67892;PMS7003;54688;52.376;16.744;2022-11-04T16:17:27;44;36;
67892;PMS7003;54688;52.376;16.744;2022-11-04T16:20:31;43;35;
67892;PMS7003;54688;52.376;16.744;2022-11-04T16:23:42;51;38;
67892;PMS7003;54688;52.376;16.744;2022-11-04T16:26:45;42;31;
67892;PMS7003;54688;52.376;16.744;2022-11-04T16:29:52;48;38;
67892;PMS7003;54688;52.376;16.744;2022-11-04T16:33:06;47;37;
67892;PMS7003;54688;52.376;16.744;2022-11-04T16:36:11;39;33;
67892;PMS7003;54688;52.376;16.744;2022-11-04T16:39:14;44;35;
67892;PMS7003;54688;52.376;16.744;2022-11-04T16:42:16;49;35;
67892;PMS7003;54688;52.376;16.744;2022-11-04T16:45:23;38;32;
67892;PMS7003;54688;52.376;16.744;2022-11-04T16:48:26;46;36;
67892;PMS7003;54688;52.376;16.744;2022-11-04T16:51:31;43;33;
67892;PMS7003;54688;52.376;16.744;2022-11-04T16:54:34;38;32;
67892;PMS7003;54688;52.376;16.744;2022-11-04T16:57:37;41;32;
67892;PMS7003;54688;52.376;16.744;2022-11-04T17:00:39;45;37;
67892;PMS7003;54688;52.376;16.744;2022-11-04T17:03:41;42;32;
67892;PMS7003;54688;52.376;16.744;2022-11-04T17:06:44;49;35;
67892;PMS7003;54688;52.376;16.744;2022-11-04T17:09:45;42;33;
67892;PMS7003;54688;52.376;16.744;2022-11-04T17:12:47;40;35;
67892;PMS7003;54688;52.376;16.744;2022-11-04T17:15:50;50;37;
67892;PMS7003;54688;52.376;16.744;2022-11-04T17:18:52;49;39;
67892;PMS7003;54688;52.376;16.744;2022-11-04T17:21:54;57;44;
67892;PMS7003;54688;52.376;16.744;2022-11-04T17:24:57;67;51;
67892;PMS7003;54688;52.376;16.744;2022-11-04T17:28:00;63;50;
67892;PMS7003;54688;52.376;16.744;2022-11-04T17:31:02;61;47;
67892;PMS7003;54688;52.376;16.744;2022-11-04T17:34:04;57;45;
67892;PMS7003;54688;52.376;16.744;2022-11-04T17:37:07;52;40;
67892;PMS7003;54688;52.376;16.744;2022-11-04T17:40:13;47;37;
67892;PMS7003;54688;52.376;16.744;2022-11-04T17:43:15;46;38;
67892;PMS7003;54688;52.376;16.744;2022-11-04T17:46:17;52;41;
67892;PMS7003;54688;52.376;16.744;2022-11-04T17:49:20;58;45;
67892;PMS7003;54688;52.376;16.744;2022-11-04T17:52:23;61;45;
67892;PMS7003;54688;52.376;16.744;2022-11-04T17:55:25;57;44;
67892;PMS7003;54688;52.376;16.744;2022-11-04T17:58:28;55;41;
67892;PMS7003;54688;52.376;16.744;2022-11-04T18:01:32;45;36;
67892;PMS7003;54688;52.376;16.744;2022-11-04T18:04:34;55;43;
67892;PMS7003;54688;52.376;16.744;2022-11-04T18:07:36;52;44;
67892;PMS7003;54688;52.376;16.744;2022-11-04T18:10:38;59;45;
67892;PMS7003;54688;52.376;16.744;2022-11-04T18:13:40;59;47;
67892;PMS7003;54688;52.376;16.744;2022-11-04T18:16:43;55;43;
67892;PMS7003;54688;52.376;16.744;2022-11-04T18:19:45;49;41;
67892;PMS7003;54688;52.376;16.744;2022-11-04T18:22:47;47;39;
67892;PMS7003;54688;52.376;16.744;2022-11-04T18:25:49;50;38;
67892;PMS7003;54688;52.376;16.744;2022-11-04T18:28:52;53;36;
67892;PMS7003;54688;52.376;16.744;2022-11-04T18:31:54;46;37;
67892;PMS7003;54688;52.376;16.744;2022-11-04T18:34:56;52;39;
67892;PMS7003;54688;52.376;16.744;2022-11-04T18:37:58;50;40;
67892;PMS7003;54688;52.376;16.744;2022-11-04T18:41:00;50;41;
67892;PMS7003;54688;52.376;16.744;2022-11-04T18:44:02;52;38;
67892;PMS7003;54688;52.376;16.744;2022-11-04T18:47:04;56;44;
67892;PMS7003;54688;52.376;16.744;2022-11-04T18:50:07;45;38;
67892;PMS7003;54688;52.376;16.744;2022-11-04T18:53:09;53;43;
67892;PMS7003;54688;52.376;16.744;2022-11-04T18:56:13;52;42;
67892;PMS7003;54688;52.376;16.744;2022-11-04T18:59:16;58;43;
67892;PMS7003;54688;52.376;16.744;2022-11-04T19:02:21;54;43;
67892;PMS7003;54688;52.376;16.744;2022-11-04T19:05:24;59;45;
67892;PMS7003;54688;52.376;16.744;2022-11-04T19:08:27;59;45;
67892;PMS7003;54688;52.376;16.744;2022-11-04T19:11:31;63;47;
67892;PMS7003;54688;52.376;16.744;2022-11-04T19:14:32;57;45;
67892;PMS7003;54688;52.376;16.744;2022-11-04T19:17:35;61;46;
67892;PMS7003;54688;52.376;16.744;2022-11-04T19:20:37;49;39;
67892;PMS7003;54688;52.376;16.744;2022-11-04T19:23:39;62;46;
67892;PMS7003;54688;52.376;16.744;2022-11-04T19:26:41;57;45;
67892;PMS7003;54688;52.376;16.744;2022-11-04T19:29:43;62;48;
67892;PMS7003;54688;52.376;16.744;2022-11-04T19:32:44;70;56;
67892;PMS7003;54688;52.376;16.744;2022-11-04T19:35:50;62;50;
67892;PMS7003;54688;52.376;16.744;2022-11-04T19:38:53;66;52;
67892;PMS7003;54688;52.376;16.744;2022-11-04T19:41:55;67;51;
67892;PMS7003;54688;52.376;16.744;2022-11-04T19:44:57;64;49;
67892;PMS7003;54688;52.376;16.744;2022-11-04T19:47:59;71;53;
67892;PMS7003;54688;52.376;16.744;2022-11-04T19:51:02;68;52;
67892;PMS7003;54688;52.376;16.744;2022-11-04T19:54:05;68;50;
67892;PMS7003;54688;52.376;16.744;2022-11-04T19:57:07;67;51;
67892;PMS7003;54688;52.376;16.744;2022-11-04T20:00:10;67;51;
67892;PMS7003;54688;52.376;16.744;2022-11-04T20:03:13;57;45;
67892;PMS7003;54688;52.376;16.744;2022-11-04T20:09:14;62;49;
67892;PMS7003;54688;52.376;16.744;2022-11-04T20:12:15;61;48;
67892;PMS7003;54688;52.376;16.744;2022-11-04T20:15:18;61;48;
67892;PMS7003;54688;52.376;16.744;2022-11-04T20:18:20;64;49;
67892;PMS7003;54688;52.376;16.744;2022-11-04T20:21:23;64;50;
67892;PMS7003;54688;52.376;16.744;2022-11-04T20:24:26;62;46;
67892;PMS7003;54688;52.376;16.744;2022-11-04T20:27:28;60;47;
67892;PMS7003;54688;52.376;16.744;2022-11-04T20:30:31;62;44;
67892;PMS7003;54688;52.376;16.744;2022-11-04T20:33:37;56;43;
67892;PMS7003;54688;52.376;16.744;2022-11-04T20:36:40;61;47;
67892;PMS7003;54688;52.376;16.744;2022-11-04T20:39:43;64;48;
67892;PMS7003;54688;52.376;16.744;2022-11-04T20:42:46;64;50;
67892;PMS7003;54688;52.376;16.744;2022-11-04T20:45:48;75;58;
67892;PMS7003;54688;52.376;16.744;2022-11-04T20:48:50;80;63;